PAL2043 RPVE-RPLL
Flight info
| Callsign | PAL2043 |
|---|---|
| Flight time | 0h 42m |
| Altitude | 29000 |
| Route | MINO8A MINOR B473 LAIYA LAIY7R |
| Aircraft | A32N/M-SDE2E3FGHIJ1RWXY/LB1 |
Departure
| Time | 2026-04-21 15:18 |
|---|---|
| Airport | Godofredo P. Ramos Airport (RPVE) |
Arrival
| Time | 2026-04-21 16:01 |
|---|---|
| Airport | Ninoy Aquino International Airport (RPLL) |
| Time | Latitude | Longitude | Altitude | Speed | Heading |
|---|---|---|---|---|---|
| 2026-04-21 15:05 | 11.92496 | 121.95300 | 13 ft | 0 kts | 63° |
| 2026-04-21 15:13 | 11.92498 | 121.95304 | 13 ft | 1 kts | 63° |
| 2026-04-21 15:13 | 11.92502 | 121.95314 | 13 ft | 1 kts | 67° |
| 2026-04-21 15:14 | 11.92504 | 121.95325 | 13 ft | 1 kts | 113° |
| 2026-04-21 15:14 | 11.92494 | 121.95340 | 13 ft | 2 kts | 131° |
| 2026-04-21 15:14 | 11.92480 | 121.95358 | 13 ft | 3 kts | 131° |
| 2026-04-21 15:14 | 11.92459 | 121.95373 | 13 ft | 3 kts | 168° |
| 2026-04-21 15:15 | 11.92434 | 121.95361 | 13 ft | 4 kts | 232° |
| 2026-04-21 15:15 | 11.92417 | 121.95331 | 13 ft | 5 kts | 242° |
| 2026-04-21 15:15 | 11.92398 | 121.95294 | 13 ft | 6 kts | 242° |
| 2026-04-21 15:15 | 11.92377 | 121.95252 | 13 ft | 7 kts | 244° |
| 2026-04-21 15:16 | 11.92354 | 121.95206 | 13 ft | 7 kts | 244° |
| 2026-04-21 15:16 | 11.92328 | 121.95155 | 13 ft | 8 kts | 241° |
| 2026-04-21 15:16 | 11.92298 | 121.95100 | 13 ft | 9 kts | 238° |
| 2026-04-21 15:16 | 11.92250 | 121.95058 | 13 ft | 9 kts | 220° |
| 2026-04-21 15:17 | 11.92238 | 121.95002 | 13 ft | 8 kts | 326° |
| 2026-04-21 15:17 | 11.92277 | 121.95037 | 13 ft | 9 kts | 75° |
| 2026-04-21 15:17 | 11.92300 | 121.95098 | 13 ft | 9 kts | 64° |
| 2026-04-21 15:17 | 11.92379 | 121.95258 | 14 ft | 57 kts | 63° |
| 2026-04-21 15:18 | 11.92671 | 121.95835 | 14 ft | 122 kts | 63° |
| 2026-04-21 15:18 | 11.93107 | 121.96718 | 284 ft | 144 kts | 66° |
| 2026-04-21 15:18 | 11.93473 | 121.97554 | 1012 ft | 126 kts | 66° |
| 2026-04-21 15:18 | 11.93917 | 121.98458 | 1179 ft | 157 kts | 64° |
| 2026-04-21 15:19 | 11.94457 | 121.99500 | 1582 ft | 175 kts | 64° |
| 2026-04-21 15:19 | 11.95052 | 122.00658 | 2058 ft | 193 kts | 64° |
| 2026-04-21 15:19 | 11.95686 | 122.01907 | 2563 ft | 210 kts | 61° |
| 2026-04-21 15:19 | 11.96666 | 122.03085 | 3043 ft | 230 kts | 37° |
| 2026-04-21 15:20 | 11.98108 | 122.03929 | 3534 ft | 249 kts | 28° |
| 2026-04-21 15:20 | 11.99721 | 122.04717 | 4012 ft | 267 kts | 26° |
| 2026-04-21 15:20 | 12.01452 | 122.05553 | 4641 ft | 278 kts | 27° |
| 2026-04-21 15:20 | 12.03186 | 122.06407 | 5439 ft | 282 kts | 27° |
| 2026-04-21 15:21 | 12.04954 | 122.07292 | 6237 ft | 286 kts | 27° |
| 2026-04-21 15:21 | 12.06723 | 122.08183 | 7020 ft | 290 kts | 27° |
| 2026-04-21 15:21 | 12.08562 | 122.09129 | 7657 ft | 300 kts | 25° |
| 2026-04-21 15:21 | 12.10486 | 122.10101 | 7958 ft | 320 kts | 24° |
| 2026-04-21 15:22 | 12.12550 | 122.11139 | 7981 ft | 338 kts | 25° |
| 2026-04-21 15:22 | 12.14555 | 122.12154 | 7973 ft | 307 kts | 25° |
| 2026-04-21 15:22 | 12.16378 | 122.13079 | 7975 ft | 284 kts | 24° |
| 2026-04-21 15:22 | 12.18140 | 122.13971 | 7991 ft | 284 kts | 24° |
| 2026-04-21 15:23 | 12.19923 | 122.14872 | 8358 ft | 289 kts | 24° |
| 2026-04-21 15:23 | 12.21714 | 122.15774 | 8925 ft | 289 kts | 26° |
| 2026-04-21 15:23 | 12.23558 | 122.16705 | 9248 ft | 299 kts | 26° |
| 2026-04-21 15:23 | 12.25446 | 122.17667 | 9697 ft | 303 kts | 26° |
| 2026-04-21 15:24 | 12.27313 | 122.18618 | 10188 ft | 305 kts | 25° |
| 2026-04-21 15:24 | 12.29265 | 122.19611 | 10450 ft | 315 kts | 25° |
| 2026-04-21 15:24 | 12.31242 | 122.20613 | 10649 ft | 326 kts | 25° |
| 2026-04-21 15:24 | 12.33310 | 122.21660 | 10835 ft | 336 kts | 24° |
| 2026-04-21 15:25 | 12.35529 | 122.22391 | 11016 ft | 338 kts | 5° |
| 2026-04-21 15:25 | 12.37837 | 122.22292 | 11113 ft | 334 kts | 344° |
| 2026-04-21 15:25 | 12.39937 | 122.21386 | 11250 ft | 315 kts | 326° |
| 2026-04-21 15:25 | 12.41742 | 122.20166 | 11063 ft | 314 kts | 323° |
| 2026-04-21 15:26 | 12.43559 | 122.18864 | 11090 ft | 324 kts | 323° |
| 2026-04-21 15:26 | 12.45448 | 122.17525 | 11290 ft | 332 kts | 323° |
| 2026-04-21 15:26 | 12.47346 | 122.16192 | 11612 ft | 334 kts | 324° |
| 2026-04-21 15:26 | 12.49271 | 122.14848 | 11999 ft | 335 kts | 324° |
| 2026-04-21 15:27 | 12.51181 | 122.13517 | 12365 ft | 336 kts | 324° |
| 2026-04-21 15:27 | 12.53122 | 122.12166 | 12707 ft | 338 kts | 324° |
| 2026-04-21 15:27 | 12.55056 | 122.10821 | 13036 ft | 339 kts | 324° |
| 2026-04-21 15:27 | 12.57016 | 122.09458 | 13366 ft | 341 kts | 324° |
| 2026-04-21 15:28 | 12.58969 | 122.08100 | 13687 ft | 343 kts | 324° |
| 2026-04-21 15:28 | 12.60933 | 122.06735 | 14003 ft | 345 kts | 324° |
| 2026-04-21 15:28 | 12.62938 | 122.05340 | 14318 ft | 346 kts | 324° |
| 2026-04-21 15:28 | 12.64913 | 122.03966 | 14622 ft | 348 kts | 324° |
| 2026-04-21 15:29 | 12.66932 | 122.02562 | 14924 ft | 350 kts | 324° |
| 2026-04-21 15:29 | 12.68935 | 122.01167 | 15218 ft | 351 kts | 324° |
| 2026-04-21 15:29 | 12.70960 | 121.99758 | 15508 ft | 353 kts | 324° |
| 2026-04-21 15:29 | 12.72974 | 121.98357 | 15791 ft | 354 kts | 324° |
| 2026-04-21 15:30 | 12.75024 | 121.96929 | 15993 ft | 356 kts | 324° |
| 2026-04-21 15:30 | 12.77054 | 121.95516 | 16001 ft | 356 kts | 324° |
| 2026-04-21 15:30 | 12.79102 | 121.94089 | 16004 ft | 356 kts | 324° |
| 2026-04-21 15:30 | 12.81150 | 121.92663 | 16006 ft | 355 kts | 324° |
| 2026-04-21 15:31 | 12.83188 | 121.91242 | 16006 ft | 356 kts | 324° |
| 2026-04-21 15:31 | 12.85229 | 121.89821 | 16007 ft | 356 kts | 324° |
| 2026-04-21 15:31 | 12.87286 | 121.88387 | 16007 ft | 355 kts | 324° |
| 2026-04-21 15:31 | 12.89309 | 121.86976 | 16007 ft | 355 kts | 324° |
| 2026-04-21 15:32 | 12.91364 | 121.85542 | 16007 ft | 355 kts | 324° |
| 2026-04-21 15:32 | 12.93415 | 121.84113 | 16007 ft | 355 kts | 324° |
| 2026-04-21 15:32 | 12.95448 | 121.82694 | 16007 ft | 355 kts | 324° |
| 2026-04-21 15:32 | 12.97508 | 121.81257 | 16007 ft | 355 kts | 324° |
| 2026-04-21 15:33 | 12.99554 | 121.79829 | 16007 ft | 355 kts | 324° |
| 2026-04-21 15:33 | 13.01571 | 121.78422 | 16007 ft | 354 kts | 324° |
| 2026-04-21 15:33 | 13.03603 | 121.77003 | 16008 ft | 353 kts | 324° |
| 2026-04-21 15:33 | 13.05646 | 121.75577 | 16008 ft | 352 kts | 324° |
| 2026-04-21 15:34 | 13.07662 | 121.74168 | 16008 ft | 352 kts | 324° |
| 2026-04-21 15:34 | 13.09663 | 121.72770 | 16008 ft | 351 kts | 324° |
| 2026-04-21 15:34 | 13.11714 | 121.71336 | 16008 ft | 350 kts | 324° |
| 2026-04-21 15:34 | 13.13727 | 121.69929 | 16007 ft | 349 kts | 324° |
| 2026-04-21 15:35 | 13.15710 | 121.68542 | 16007 ft | 349 kts | 324° |
| 2026-04-21 15:35 | 13.17730 | 121.67130 | 16007 ft | 349 kts | 324° |
| 2026-04-21 15:35 | 13.19722 | 121.65736 | 16007 ft | 349 kts | 324° |
| 2026-04-21 15:35 | 13.21751 | 121.64317 | 16007 ft | 349 kts | 324° |
| 2026-04-21 15:36 | 13.23741 | 121.62924 | 16007 ft | 349 kts | 324° |
| 2026-04-21 15:36 | 13.25753 | 121.61516 | 16007 ft | 349 kts | 324° |
| 2026-04-21 15:36 | 13.27753 | 121.60115 | 16007 ft | 349 kts | 324° |
| 2026-04-21 15:36 | 13.29757 | 121.58712 | 16007 ft | 349 kts | 324° |
| 2026-04-21 15:37 | 13.31772 | 121.57301 | 16007 ft | 349 kts | 324° |
| 2026-04-21 15:37 | 13.33775 | 121.55898 | 16007 ft | 349 kts | 324° |
| 2026-04-21 15:37 | 13.35782 | 121.54491 | 16007 ft | 349 kts | 324° |
| 2026-04-21 15:37 | 13.37769 | 121.53099 | 15993 ft | 347 kts | 324° |
| 2026-04-21 15:38 | 13.39729 | 121.51726 | 15647 ft | 341 kts | 324° |
| 2026-04-21 15:38 | 13.41676 | 121.50361 | 14838 ft | 338 kts | 324° |
| 2026-04-21 15:38 | 13.43609 | 121.49003 | 13974 ft | 336 kts | 324° |
| 2026-04-21 15:38 | 13.45509 | 121.47668 | 13195 ft | 331 kts | 324° |
| 2026-04-21 15:39 | 13.47372 | 121.46360 | 12499 ft | 324 kts | 324° |
| 2026-04-21 15:39 | 13.49226 | 121.45058 | 12102 ft | 322 kts | 324° |
| 2026-04-21 15:39 | 13.51078 | 121.43758 | 12010 ft | 322 kts | 324° |
| 2026-04-21 15:39 | 13.52931 | 121.42458 | 12008 ft | 322 kts | 324° |
| 2026-04-21 15:40 | 13.54781 | 121.41160 | 12007 ft | 323 kts | 324° |
| 2026-04-21 15:40 | 13.56531 | 121.39789 | 11998 ft | 308 kts | 316° |
| 2026-04-21 15:40 | 13.57952 | 121.38244 | 12000 ft | 288 kts | 308° |
| 2026-04-21 15:40 | 13.59101 | 121.36601 | 12005 ft | 286 kts | 304° |
| 2026-04-21 15:41 | 13.60208 | 121.34895 | 12006 ft | 285 kts | 303° |
| 2026-04-21 15:41 | 13.61297 | 121.33206 | 12007 ft | 285 kts | 303° |
| 2026-04-21 15:41 | 13.62402 | 121.31503 | 12007 ft | 285 kts | 303° |
| 2026-04-21 15:41 | 13.63502 | 121.29812 | 12006 ft | 285 kts | 303° |
| 2026-04-21 15:42 | 13.64599 | 121.28132 | 12006 ft | 285 kts | 303° |
| 2026-04-21 15:42 | 13.65717 | 121.26420 | 12006 ft | 285 kts | 303° |
| 2026-04-21 15:42 | 13.66818 | 121.24734 | 12006 ft | 285 kts | 303° |
| 2026-04-21 15:42 | 13.67925 | 121.23038 | 12006 ft | 285 kts | 303° |
| 2026-04-21 15:43 | 13.69025 | 121.21354 | 12006 ft | 285 kts | 303° |
| 2026-04-21 15:43 | 13.70125 | 121.19667 | 12006 ft | 285 kts | 303° |
| 2026-04-21 15:43 | 13.71228 | 121.17977 | 12006 ft | 285 kts | 303° |
| 2026-04-21 15:43 | 13.72335 | 121.16280 | 12006 ft | 286 kts | 303° |
| 2026-04-21 15:44 | 13.73448 | 121.14574 | 12006 ft | 286 kts | 303° |
| 2026-04-21 15:44 | 13.74555 | 121.12875 | 12006 ft | 287 kts | 303° |
| 2026-04-21 15:44 | 13.75670 | 121.11164 | 12006 ft | 287 kts | 303° |
| 2026-04-21 15:44 | 13.76769 | 121.09477 | 12006 ft | 287 kts | 303° |
| 2026-04-21 15:45 | 13.77880 | 121.07773 | 12006 ft | 288 kts | 303° |
| 2026-04-21 15:45 | 13.79007 | 121.06043 | 12006 ft | 288 kts | 303° |
| 2026-04-21 15:45 | 13.80114 | 121.04343 | 12006 ft | 289 kts | 303° |
| 2026-04-21 15:45 | 13.81232 | 121.02625 | 12006 ft | 289 kts | 303° |
| 2026-04-21 15:46 | 13.82370 | 121.00877 | 12006 ft | 290 kts | 303° |
| 2026-04-21 15:46 | 13.83480 | 120.99171 | 12006 ft | 290 kts | 303° |
| 2026-04-21 15:46 | 13.84614 | 120.97429 | 12006 ft | 290 kts | 303° |
| 2026-04-21 15:46 | 13.85732 | 120.95709 | 12006 ft | 291 kts | 303° |
| 2026-04-21 15:47 | 13.86850 | 120.93991 | 12006 ft | 291 kts | 303° |
| 2026-04-21 15:47 | 13.87976 | 120.92259 | 12006 ft | 291 kts | 303° |
| 2026-04-21 15:47 | 13.89108 | 120.90518 | 12006 ft | 291 kts | 303° |
| 2026-04-21 15:47 | 13.90220 | 120.88807 | 12006 ft | 291 kts | 303° |
| 2026-04-21 15:48 | 13.91535 | 120.87207 | 11996 ft | 292 kts | 319° |
| 2026-04-21 15:48 | 13.93233 | 120.86080 | 11944 ft | 294 kts | 333° |
| 2026-04-21 15:48 | 13.95110 | 120.85244 | 11762 ft | 294 kts | 336° |
| 2026-04-21 15:48 | 13.97006 | 120.84453 | 11487 ft | 293 kts | 336° |
| 2026-04-21 15:49 | 13.98873 | 120.83675 | 11161 ft | 291 kts | 336° |
| 2026-04-21 15:49 | 14.00734 | 120.82894 | 10814 ft | 289 kts | 336° |
| 2026-04-21 15:49 | 14.02597 | 120.82107 | 10455 ft | 287 kts | 335° |
| 2026-04-21 15:49 | 14.04415 | 120.81335 | 10100 ft | 286 kts | 335° |
| 2026-04-21 15:50 | 14.06250 | 120.80553 | 9738 ft | 283 kts | 335° |
| 2026-04-21 15:50 | 14.08068 | 120.79776 | 9380 ft | 281 kts | 335° |
| 2026-04-21 15:50 | 14.09855 | 120.79012 | 9035 ft | 279 kts | 335° |
| 2026-04-21 15:50 | 14.11647 | 120.78246 | 8686 ft | 277 kts | 335° |
| 2026-04-21 15:51 | 14.13406 | 120.77494 | 8348 ft | 275 kts | 335° |
| 2026-04-21 15:51 | 14.15159 | 120.76744 | 8016 ft | 273 kts | 335° |
| 2026-04-21 15:51 | 14.16926 | 120.75987 | 7679 ft | 271 kts | 335° |
| 2026-04-21 15:51 | 14.18645 | 120.75252 | 7358 ft | 270 kts | 335° |
| 2026-04-21 15:52 | 14.20364 | 120.74516 | 7044 ft | 267 kts | 335° |
| 2026-04-21 15:52 | 14.22071 | 120.73785 | 6729 ft | 266 kts | 336° |
| 2026-04-21 15:52 | 14.23768 | 120.73058 | 6419 ft | 264 kts | 336° |
| 2026-04-21 15:52 | 14.25475 | 120.72327 | 6110 ft | 263 kts | 336° |
| 2026-04-21 15:53 | 14.27145 | 120.71613 | 5815 ft | 262 kts | 336° |
| 2026-04-21 15:53 | 14.28792 | 120.70910 | 5719 ft | 252 kts | 336° |
| 2026-04-21 15:53 | 14.30428 | 120.70209 | 5709 ft | 253 kts | 338° |
| 2026-04-21 15:53 | 14.32124 | 120.69883 | 5621 ft | 254 kts | 8° |
| 2026-04-21 15:54 | 14.33718 | 120.70589 | 5394 ft | 253 kts | 45° |
| 2026-04-21 15:54 | 14.34736 | 120.72054 | 5117 ft | 248 kts | 66° |
| 2026-04-21 15:54 | 14.35449 | 120.73668 | 5012 ft | 248 kts | 68° |
| 2026-04-21 15:54 | 14.36178 | 120.75287 | 5010 ft | 249 kts | 65° |
| 2026-04-21 15:55 | 14.36953 | 120.76842 | 4996 ft | 233 kts | 63° |
| 2026-04-21 15:55 | 14.37691 | 120.78228 | 4968 ft | 212 kts | 62° |
| 2026-04-21 15:55 | 14.38399 | 120.79522 | 4768 ft | 202 kts | 62° |
| 2026-04-21 15:55 | 14.39066 | 120.80727 | 4650 ft | 184 kts | 62° |
| 2026-04-21 15:56 | 14.39691 | 120.81848 | 4379 ft | 174 kts | 63° |
| 2026-04-21 15:56 | 14.40286 | 120.82917 | 3921 ft | 175 kts | 63° |
| 2026-04-21 15:56 | 14.40891 | 120.84006 | 3456 ft | 174 kts | 63° |
| 2026-04-21 15:56 | 14.41492 | 120.85089 | 3080 ft | 171 kts | 63° |
| 2026-04-21 15:57 | 14.42089 | 120.86153 | 2930 ft | 171 kts | 62° |
| 2026-04-21 15:57 | 14.42682 | 120.87212 | 2967 ft | 170 kts | 63° |
| 2026-04-21 15:57 | 14.43265 | 120.88264 | 2978 ft | 168 kts | 63° |
| 2026-04-21 15:57 | 14.43823 | 120.89288 | 2751 ft | 161 kts | 60° |
| 2026-04-21 15:58 | 14.44379 | 120.90286 | 2306 ft | 161 kts | 60° |
| 2026-04-21 15:58 | 14.44950 | 120.91280 | 1842 ft | 161 kts | 59° |
| 2026-04-21 15:58 | 14.45528 | 120.92272 | 1391 ft | 167 kts | 62° |
| 2026-04-21 15:58 | 14.46091 | 120.93308 | 1155 ft | 155 kts | 62° |
| 2026-04-21 15:59 | 14.46586 | 120.94186 | 1061 ft | 135 kts | 59° |
| 2026-04-21 15:59 | 14.47092 | 120.95084 | 953 ft | 158 kts | 62° |
| 2026-04-21 15:59 | 14.47656 | 120.96098 | 979 ft | 164 kts | 60° |
| 2026-04-21 15:59 | 14.48188 | 120.97053 | 797 ft | 146 kts | 61° |
| 2026-04-21 16:00 | 14.48695 | 120.97968 | 594 ft | 146 kts | 63° |
| 2026-04-21 16:00 | 14.49166 | 120.98848 | 380 ft | 136 kts | 63° |
| 2026-04-21 16:00 | 14.49643 | 120.99730 | 255 ft | 143 kts | 62° |
| 2026-04-21 16:00 | 14.50130 | 121.00620 | 96 ft | 139 kts | 63° |
| 2026-04-21 16:01 | 14.50558 | 121.01414 | 84 ft | 108 kts | 58° |
| 2026-04-21 16:01 | 14.50851 | 121.01932 | 84 ft | 32 kts | 60° |
| 2026-04-21 16:01 | 14.50965 | 121.01990 | 83 ft | 20 kts | 322° |
| 2026-04-21 16:01 | 14.51007 | 121.01923 | 83 ft | 10 kts | 263° |
| 2026-04-21 16:02 | 14.50973 | 121.01854 | 83 ft | 11 kts | 229° |
| 2026-04-21 16:02 | 14.50929 | 121.01788 | 83 ft | 11 kts | 242° |
| 2026-04-21 16:02 | 14.50954 | 121.01720 | 83 ft | 11 kts | 309° |
| 2026-04-21 16:02 | 14.50939 | 121.01650 | 83 ft | 10 kts | 238° |
| 2026-04-21 16:03 | 14.50897 | 121.01583 | 83 ft | 11 kts | 237° |
| 2026-04-21 16:03 | 14.50858 | 121.01511 | 84 ft | 11 kts | 242° |
| 2026-04-21 16:03 | 14.50854 | 121.01440 | 83 ft | 10 kts | 336° |
| 2026-04-21 16:03 | 14.50903 | 121.01419 | 83 ft | 0 kts | 333° |
| 2026-04-21 16:04 | 14.50910 | 121.01415 | 83 ft | 1 kts | 333° |
| 2026-04-21 16:04 | 14.50921 | 121.01409 | 83 ft | 0 kts | 330° |